Time;durP1;ratioP1;P1;durP2;ratioP2;P2;SDS_P1;SDS_P2;PMS_P1;PMS_P2;Temp;Humidity;BMP_temperature;BMP_pressure;BME280_temperature;BME280_humidity;BME280_pressure;Samples;Min_cycle;Max_cycle;Signal;HPM_P1;HPM_P2
2023/04/16 00:00:37;;;;;;;74.03;10.32;;;;;;;;;;5073185;28;20033;-37
2023/04/16 00:03:05;;;;;;;69.20;9.68;;;;;;;;;;5073053;28;20108;-38
2023/04/16 00:05:32;;;;;;;74.25;9.98;;;;;;;;;;5073155;28;20059;-39
2023/04/16 00:07:59;;;;;;;64.90;10.02;;;;;;;;;;5073040;28;20039;-39
2023/04/16 00:10:26;;;;;;;48.65;9.13;;;;;;;;;;5073009;28;20032;-39
2023/04/16 00:12:53;;;;;;;65.53;9.82;;;;;;;;;;5072130;28;20052;-41
2023/04/16 00:15:20;;;;;;;61.80;10.38;;;;;;;;;;5071689;28;20031;-39
2023/04/16 00:17:47;;;;;;;56.05;10.13;;;;;;;;;;5072335;28;20059;-39
2023/04/16 00:20:14;;;;;;;51.83;9.60;;;;;;;;;;5072000;28;20572;-39
2023/04/16 00:22:41;;;;;;;64.35;8.90;;;;;;;;;;5071619;28;20025;-38
2023/04/16 00:25:08;;;;;;;61.28;10.45;;;;;;;;;;5071550;28;20488;-37
2023/04/16 00:27:35;;;;;;;76.20;10.15;;;;;;;;;;5072124;28;20036;-38
2023/04/16 00:30:02;;;;;;;55.53;9.45;;;;;;;;;;5071878;28;20028;-37
2023/04/16 00:32:34;;;;;;;52.08;9.57;;;;;;;;;;5071115;28;20506;-37
2023/04/16 00:35:01;;;;;;;;;;;;;;;;;;5071624;28;20029;-38
2023/04/16 00:37:28;;;;;;;60.63;11.20;;;;;;;;;;5071810;28;20007;-37
2023/04/16 00:40:05;;;;;;;64.85;11.80;;;;;;;;;;5071120;28;20032;-38
2023/04/16 00:42:32;;;;;;;70.15;12.93;;;;;;;;;;5069593;28;20082;-37
2023/04/16 00:44:59;;;;;;;61.08;11.57;;;;;;;;;;5071603;28;20040;-37
2023/04/16 00:47:26;;;;;;;59.65;11.48;;;;;;;;;;5071887;28;20520;-37
2023/04/16 00:49:54;;;;;;;67.55;11.35;;;;;;;;;;5071377;28;20120;-37
2023/04/16 00:52:21;;;;;;;65.80;12.02;;;;;;;;;;5071540;28;20040;-37
2023/04/16 00:54:48;;;;;;;53.83;12.15;;;;;;;;;;5071482;28;20089;-37
2023/04/16 00:57:15;;;;;;;63.35;12.65;;;;;;;;;;5053211;28;20442;-37
2023/04/16 00:59:43;;;;;;;57.97;11.63;;;;;;;;;;5071157;28;20087;-37
2023/04/16 01:02:11;;;;;;;55.47;12.10;;;;;;;;;;5070536;28;20493;-36
2023/04/16 01:04:38;;;;;;;60.35;11.88;;;;;;;;;;5071103;28;20076;-37
2023/04/16 01:07:05;;;;;;;63.40;12.80;;;;;;;;;;5071067;28;20036;-36
2023/04/16 01:09:32;;;;;;;59.95;12.63;;;;;;;;;;5070480;28;20033;-36
2023/04/16 01:11:59;;;;;;;51.15;12.15;;;;;;;;;;5070807;28;20028;-37
2023/04/16 01:14:26;;;;;;;56.78;12.52;;;;;;;;;;5071056;28;20024;-37
2023/04/16 01:16:53;;;;;;;61.50;11.82;;;;;;;;;;5070386;28;20036;-36
2023/04/16 01:19:20;;;;;;;57.28;13.88;;;;;;;;;;5070430;28;20031;-39
2023/04/16 01:21:47;;;;;;;71.25;14.07;;;;;;;;;;5070915;28;20032;-38
2023/04/16 01:24:14;;;;;;;55.10;13.02;;;;;;;;;;5070717;28;20043;-38
2023/04/16 01:26:41;;;;;;;56.65;13.27;;;;;;;;;;5070955;28;20040;-37
2023/04/16 01:29:08;;;;;;;56.83;13.55;;;;;;;;;;5070712;28;20029;-37
2023/04/16 01:31:35;;;;;;;63.92;14.10;;;;;;;;;;5070974;28;20038;-37
2023/04/16 01:34:02;;;;;;;54.55;14.00;;;;;;;;;;5070482;28;20024;-37
2023/04/16 01:36:29;;;;;;;72.25;15.18;;;;;;;;;;5070496;28;20340;-37
2023/04/16 01:38:56;;;;;;;64.68;15.18;;;;;;;;;;5070648;28;20040;-37
2023/04/16 01:41:23;;;;;;;77.00;18.10;;;;;;;;;;5052475;28;20028;-37
2023/04/16 01:43:50;;;;;;;54.08;17.20;;;;;;;;;;5070556;28;20034;-37
2023/04/16 01:46:31;;;;;;;72.50;17.08;;;;;;;;;;5070635;28;20028;-37
2023/04/16 01:48:58;;;;;;;69.65;19.33;;;;;;;;;;5070684;28;20021;-37
2023/04/16 01:51:26;;;;;;;78.82;21.85;;;;;;;;;;5069001;28;20448;-37
2023/04/16 01:53:53;;;;;;;73.78;22.08;;;;;;;;;;5055327;28;20032;-36
2023/04/16 01:56:20;;;;;;;86.72;23.20;;;;;;;;;;5070522;28;20035;-37
2023/04/16 01:58:47;;;;;;;91.35;24.17;;;;;;;;;;5070317;28;20029;-36
2023/04/16 02:01:14;;;;;;;90.07;25.42;;;;;;;;;;5052466;28;20171;-37
2023/04/16 02:03:42;;;;;;;107.93;30.75;;;;;;;;;;5070398;28;20032;-36
2023/04/16 02:06:09;;;;;;;93.88;30.17;;;;;;;;;;5070323;28;20029;-37
2023/04/16 02:08:36;;;;;;;116.40;35.10;;;;;;;;;;5070425;28;20025;-38
2023/04/16 02:11:03;;;;;;;111.80;34.35;;;;;;;;;;5032764;28;20032;-36
2023/04/16 02:13:30;;;;;;;108.03;32.85;;;;;;;;;;5064725;28;20433;-37
2023/04/16 02:15:57;;;;;;;103.53;31.38;;;;;;;;;;5070951;28;20025;-36
2023/04/16 02:18:24;;;;;;;106.50;32.28;;;;;;;;;;5070860;28;20540;-35
2023/04/16 02:20:51;;;;;;;109.18;33.05;;;;;;;;;;5070453;28;20086;-36
2023/04/16 02:23:18;;;;;;;102.43;32.35;;;;;;;;;;5074010;28;20044;-35
2023/04/16 02:25:46;;;;;;;95.05;31.77;;;;;;;;;;5075079;28;20121;-36
2023/04/16 02:28:14;;;;;;;98.30;31.48;;;;;;;;;;5056337;28;20025;-36
2023/04/16 02:30:42;;;;;;;96.65;31.00;;;;;;;;;;5074748;28;20402;-36
2023/04/16 02:33:11;;;;;;;94.90;30.00;;;;;;;;;;5074870;28;20115;-37
2023/04/16 02:35:38;;;;;;;87.43;30.10;;;;;;;;;;5074117;28;20036;-36
2023/04/16 02:38:06;;;;;;;99.40;31.45;;;;;;;;;;5074837;28;20064;-36
2023/04/16 02:40:33;;;;;;;93.28;29.08;;;;;;;;;;5074310;28;20093;-36
2023/04/16 02:43:00;;;;;;;95.93;28.17;;;;;;;;;;5074957;28;20041;-36
2023/04/16 02:45:27;;;;;;;93.85;29.33;;;;;;;;;;5073433;28;20028;-36
2023/04/16 02:47:54;;;;;;;81.95;29.05;;;;;;;;;;5074343;28;20494;-36
2023/04/16 02:50:21;;;;;;;87.57;29.05;;;;;;;;;;5073913;28;20406;-37
2023/04/16 02:52:48;;;;;;;87.57;27.77;;;;;;;;;;5074721;28;20078;-36
2023/04/16 02:55:15;;;;;;;92.03;28.98;;;;;;;;;;5074887;28;20359;-37
2023/04/16 02:57:42;;;;;;;79.82;27.20;;;;;;;;;;5074629;28;20077;-37
2023/04/16 03:00:10;;;;;;;79.38;28.10;;;;;;;;;;5068244;28;20040;-37
2023/04/16 03:02:37;;;;;;;76.45;26.98;;;;;;;;;;5062795;28;20128;-37
2023/04/16 03:05:04;;;;;;;74.30;24.83;;;;;;;;;;5068021;28;20424;-37
2023/04/16 03:07:31;;;;;;;66.78;24.25;;;;;;;;;;5065402;28;20021;-37
2023/04/16 03:09:59;;;;;;;72.97;24.65;;;;;;;;;;5058946;28;20175;-38
2023/04/16 03:12:27;;;;;;;74.35;25.60;;;;;;;;;;5059449;28;20048;-38
2023/04/16 03:14:54;;;;;;;69.18;23.80;;;;;;;;;;5064189;28;20029;-38
2023/04/16 03:17:22;;;;;;;73.28;25.38;;;;;;;;;;5060154;28;20021;-38
2023/04/16 03:19:49;;;;;;;68.40;23.83;;;;;;;;;;5059023;28;20029;-38
2023/04/16 03:22:17;;;;;;;57.63;23.33;;;;;;;;;;5054031;28;20025;-38
2023/04/16 03:24:44;;;;;;;60.08;23.38;;;;;;;;;;5054127;28;20198;-37
2023/04/16 03:27:12;;;;;;;57.58;23.52;;;;;;;;;;5054185;28;20064;-38
2023/04/16 03:29:40;;;;;;;56.60;22.33;;;;;;;;;;5054181;28;20033;-38
2023/04/16 03:32:07;;;;;;;63.15;23.88;;;;;;;;;;5053423;28;20029;-37
2023/04/16 03:34:35;;;;;;;65.63;23.63;;;;;;;;;;5035904;28;20040;-37
2023/04/16 03:37:04;;;;;;;66.47;22.83;;;;;;;;;;5054048;28;20041;-37
2023/04/16 03:39:31;;;;;;;57.03;22.23;;;;;;;;;;5053847;28;20041;-37
2023/04/16 03:41:58;;;;;;;57.92;22.85;;;;;;;;;;5053920;28;20079;-37
2023/04/16 03:44:25;;;;;;;50.28;21.20;;;;;;;;;;5054043;28;20044;-37
2023/04/16 03:46:52;;;;;;;59.60;21.65;;;;;;;;;;5054032;28;20037;-37
2023/04/16 03:49:19;;;;;;;53.60;21.67;;;;;;;;;;5053876;28;20021;-37
2023/04/16 03:51:46;;;;;;;56.80;21.17;;;;;;;;;;5053674;28;20055;-37
2023/04/16 03:54:13;;;;;;;51.03;20.02;;;;;;;;;;5053779;28;20036;-37
2023/04/16 03:56:40;;;;;;;51.97;21.55;;;;;;;;;;5053896;28;20021;-37
2023/04/16 03:59:08;;;;;;;55.20;21.23;;;;;;;;;;5053691;28;20566;-37
2023/04/16 04:01:35;;;;;;;55.55;20.60;;;;;;;;;;5053690;28;20033;-37
2023/04/16 04:04:02;;;;;;;51.90;20.38;;;;;;;;;;5053589;28;20029;-38
2023/04/16 04:06:29;;;;;;;48.42;19.52;;;;;;;;;;5053546;28;20025;-37
2023/04/16 04:08:56;;;;;;;48.35;19.65;;;;;;;;;;5053347;28;20037;-37
2023/04/16 04:11:23;;;;;;;56.83;19.05;;;;;;;;;;5053470;28;20690;-37
2023/04/16 04:13:50;;;;;;;41.97;18.80;;;;;;;;;;5053571;28;20021;-37
2023/04/16 04:16:17;;;;;;;46.45;18.30;;;;;;;;;;5053450;28;20083;-37
2023/04/16 04:18:44;;;;;;;46.08;19.02;;;;;;;;;;5053537;28;20044;-37
2023/04/16 04:21:11;;;;;;;43.20;17.65;;;;;;;;;;5053368;28;20094;-37
2023/04/16 04:23:40;;;;;;;47.97;18.60;;;;;;;;;;5053302;28;20025;-37
2023/04/16 04:26:07;;;;;;;45.88;18.83;;;;;;;;;;5053085;28;20037;-37
2023/04/16 04:28:34;;;;;;;44.42;17.55;;;;;;;;;;5053093;28;20372;-37
2023/04/16 04:31:01;;;;;;;41.63;17.58;;;;;;;;;;5052902;28;20048;-37
2023/04/16 04:33:29;;;;;;;34.38;16.80;;;;;;;;;;5053161;28;20383;-37
2023/04/16 04:35:56;;;;;;;45.97;17.35;;;;;;;;;;5052870;28;20051;-37
2023/04/16 04:38:24;;;;;;;41.50;17.60;;;;;;;;;;5053019;28;20028;-37
2023/04/16 04:40:54;;;;;;;41.45;17.27;;;;;;;;;;5052702;28;20059;-37
2023/04/16 04:43:21;;;;;;;39.33;17.27;;;;;;;;;;5052974;28;20067;-37
2023/04/16 04:45:48;;;;;;;34.85;16.67;;;;;;;;;;5051904;28;20029;-37
2023/04/16 04:48:15;;;;;;;37.17;17.00;;;;;;;;;;5052849;28;20390;-37
2023/04/16 04:50:42;;;;;;;37.95;16.30;;;;;;;;;;5052590;28;20045;-37
2023/04/16 04:53:10;;;;;;;35.15;15.70;;;;;;;;;;5052692;28;20056;-37
2023/04/16 04:55:40;;;;;;;39.28;16.38;;;;;;;;;;5052530;28;20560;-37
2023/04/16 04:58:08;;;;;;;34.65;16.40;;;;;;;;;;5052533;28;20091;-37
2023/04/16 05:00:35;;;;;;;37.75;16.02;;;;;;;;;;5052490;28;20033;-38
2023/04/16 05:03:03;;;;;;;34.78;15.15;;;;;;;;;;5052406;28;20469;-37
2023/04/16 05:05:30;;;;;;;36.67;15.10;;;;;;;;;;5052381;28;20536;-37
2023/04/16 05:07:57;;;;;;;37.83;15.75;;;;;;;;;;5052537;28;20079;-37
2023/04/16 05:10:24;;;;;;;36.10;15.18;;;;;;;;;;5052441;28;20107;-37
2023/04/16 05:12:51;;;;;;;34.90;15.38;;;;;;;;;;5052299;28;20434;-37
2023/04/16 05:15:18;;;;;;;29.88;14.90;;;;;;;;;;5052347;28;20060;-37
2023/04/16 05:17:45;;;;;;;31.95;14.63;;;;;;;;;;5052273;28;20562;-37
2023/04/16 05:20:12;;;;;;;32.47;14.30;;;;;;;;;;5052242;28;20035;-37
2023/04/16 05:22:39;;;;;;;27.95;13.10;;;;;;;;;;5052209;28;20482;-37
2023/04/16 05:25:06;;;;;;;34.92;15.30;;;;;;;;;;5052124;28;20119;-37
2023/04/16 05:27:33;;;;;;;29.55;14.52;;;;;;;;;;5052128;28;20059;-37
2023/04/16 05:30:00;;;;;;;42.35;14.85;;;;;;;;;;5052086;28;20051;-37
2023/04/16 05:32:27;;;;;;;29.70;13.30;;;;;;;;;;5052029;28;20028;-37
2023/04/16 05:34:54;;;;;;;34.05;14.00;;;;;;;;;;5052013;28;20497;-37
2023/04/16 05:37:21;;;;;;;29.67;12.80;;;;;;;;;;5051847;28;20032;-37
2023/04/16 05:39:48;;;;;;;26.42;12.50;;;;;;;;;;5051879;28;20055;-37
2023/04/16 05:42:15;;;;;;;29.70;14.07;;;;;;;;;;5051740;28;20112;-37
2023/04/16 05:44:42;;;;;;;25.90;12.45;;;;;;;;;;5051791;28;20048;-37
2023/04/16 05:47:09;;;;;;;26.55;12.68;;;;;;;;;;5051780;28;20025;-37
2023/04/16 05:49:36;;;;;;;27.33;13.20;;;;;;;;;;5051578;28;20025;-37
2023/04/16 05:52:04;;;;;;;28.75;13.15;;;;;;;;;;5051654;28;20138;-37
2023/04/16 05:54:31;;;;;;;29.92;12.70;;;;;;;;;;5051522;28;20041;-37
2023/04/16 05:57:00;;;;;;;27.95;13.52;;;;;;;;;;5051597;28;20049;-37
2023/04/16 05:59:28;;;;;;;27.42;12.20;;;;;;;;;;5051396;28;20033;-37
2023/04/16 06:01:55;;;;;;;23.73;12.70;;;;;;;;;;5050050;28;20044;-37
2023/04/16 06:04:22;;;;;;;26.23;12.93;;;;;;;;;;5051522;28;20033;-36
2023/04/16 06:06:49;;;;;;;30.30;13.35;;;;;;;;;;5051605;28;20036;-37
2023/04/16 06:09:17;;;;;;;24.95;12.50;;;;;;;;;;5051341;28;20107;-37
2023/04/16 06:11:44;;;;;;;23.67;11.95;;;;;;;;;;5051528;28;20034;-37
2023/04/16 06:14:11;;;;;;;28.05;12.27;;;;;;;;;;5051331;28;20472;-37
2023/04/16 06:16:38;;;;;;;21.83;11.63;;;;;;;;;;5051504;28;20068;-37
2023/04/16 06:19:05;;;;;;;21.25;11.80;;;;;;;;;;5051375;28;20044;-36
2023/04/16 06:21:32;;;;;;;24.30;11.02;;;;;;;;;;5051234;28;20070;-36
2023/04/16 06:23:59;;;;;;;23.65;11.77;;;;;;;;;;5050978;28;20105;-37
2023/04/16 06:26:26;;;;;;;22.45;11.23;;;;;;;;;;5051363;28;20108;-37
2023/04/16 06:28:53;;;;;;;23.05;11.23;;;;;;;;;;5051272;28;20115;-37
2023/04/16 06:31:20;;;;;;;20.45;11.15;;;;;;;;;;5051334;28;20020;-37
2023/04/16 06:33:47;;;;;;;23.50;11.18;;;;;;;;;;5051287;28;20029;-36
2023/04/16 06:36:15;;;;;;;23.05;10.68;;;;;;;;;;5051300;28;20029;-37
2023/04/16 06:38:42;;;;;;;23.88;11.82;;;;;;;;;;5051305;28;20072;-37
2023/04/16 06:41:09;;;;;;;21.85;11.18;;;;;;;;;;5051318;28;20087;-37
2023/04/16 06:43:36;;;;;;;16.23;9.75;;;;;;;;;;5051278;28;20118;-37
2023/04/16 06:46:03;;;;;;;22.30;10.55;;;;;;;;;;5051124;28;20091;-37
2023/04/16 06:48:30;;;;;;;17.23;10.48;;;;;;;;;;5051172;28;20029;-37
2023/04/16 06:50:57;;;;;;;20.63;10.55;;;;;;;;;;5050972;28;20037;-37
2023/04/16 06:53:24;;;;;;;16.60;9.93;;;;;;;;;;5051076;28;20056;-37
2023/04/16 06:55:51;;;;;;;18.50;10.35;;;;;;;;;;5051048;28;20371;-37
2023/04/16 06:58:18;;;;;;;19.45;10.90;;;;;;;;;;5051111;28;20102;-37
2023/04/16 07:00:45;;;;;;;20.55;10.55;;;;;;;;;;5051006;28;20185;-37
2023/04/16 07:03:12;;;;;;;22.27;9.68;;;;;;;;;;5051016;28;20057;-37
2023/04/16 07:05:39;;;;;;;19.45;10.13;;;;;;;;;;5050933;28;20095;-37
2023/04/16 07:08:06;;;;;;;17.40;9.85;;;;;;;;;;5052184;28;20033;-37
2023/04/16 07:10:33;;;;;;;16.58;8.98;;;;;;;;;;5054563;28;20439;-36
2023/04/16 07:13:01;;;;;;;19.10;9.20;;;;;;;;;;5054653;28;20079;-36
2023/04/16 07:15:28;;;;;;;15.45;9.35;;;;;;;;;;5054453;28;20479;-37
2023/04/16 07:17:54;;;;;;;16.50;9.05;;;;;;;;;;5054577;28;20025;-36
2023/04/16 07:20:21;;;;;;;19.52;8.88;;;;;;;;;;5054434;28;20092;-36
2023/04/16 07:22:49;;;;;;;18.05;9.55;;;;;;;;;;5054440;28;20056;-36
2023/04/16 07:25:16;;;;;;;16.80;9.20;;;;;;;;;;5054404;28;20115;-36
2023/04/16 07:27:43;;;;;;;17.23;8.82;;;;;;;;;;5054332;28;20049;-37
2023/04/16 07:30:10;;;;;;;15.35;8.50;;;;;;;;;;5054314;28;20543;-36
2023/04/16 07:32:37;;;;;;;15.48;8.52;;;;;;;;;;5054329;28;20025;-37
2023/04/16 07:35:04;;;;;;;15.13;8.15;;;;;;;;;;5054342;28;20079;-36
2023/04/16 07:37:31;;;;;;;15.23;8.65;;;;;;;;;;5054165;28;20017;-36
2023/04/16 07:39:59;;;;;;;15.93;8.45;;;;;;;;;;5053926;28;20537;-37
2023/04/16 07:42:27;;;;;;;16.40;8.70;;;;;;;;;;5053955;28;20120;-36
2023/04/16 07:44:54;;;;;;;17.63;8.20;;;;;;;;;;5053859;28;20045;-36
2023/04/16 07:47:25;;;;;;;16.80;8.55;;;;;;;;;;5054011;28;20031;-37
2023/04/16 07:49:53;;;;;;;19.38;8.57;;;;;;;;;;5053961;28;20040;-37
2023/04/16 07:52:20;;;;;;;14.57;7.97;;;;;;;;;;5053780;28;20041;-37
2023/04/16 07:54:47;;;;;;;16.00;8.32;;;;;;;;;;5053892;28;20037;-37
2023/04/16 07:57:15;;;;;;;15.27;8.32;;;;;;;;;;5053701;28;20033;-37
2023/04/16 07:59:42;;;;;;;13.60;8.00;;;;;;;;;;5053535;28;20041;-36
2023/04/16 08:02:10;;;;;;;14.73;7.57;;;;;;;;;;5053577;28;20032;-37
2023/04/16 08:04:38;;;;;;;13.57;7.50;;;;;;;;;;5053669;28;20091;-37
2023/04/16 08:07:05;;;;;;;14.50;7.55;;;;;;;;;;5053491;28;20041;-37
2023/04/16 08:09:32;;;;;;;13.10;7.55;;;;;;;;;;5053574;28;20021;-37
2023/04/16 08:12:00;;;;;;;11.65;6.97;;;;;;;;;;5035508;28;20364;-37
2023/04/16 08:14:27;;;;;;;13.68;7.53;;;;;;;;;;5053095;28;20041;-37
2023/04/16 08:16:54;;;;;;;11.25;6.97;;;;;;;;;;5053482;28;20036;-37
2023/04/16 08:19:21;;;;;;;12.93;7.63;;;;;;;;;;5053419;28;20032;-37
2023/04/16 08:21:48;;;;;;;12.70;7.30;;;;;;;;;;5053389;28;20547;-37
2023/04/16 08:24:15;;;;;;;13.40;7.13;;;;;;;;;;5053119;28;20059;-37
2023/04/16 08:26:42;;;;;;;13.07;7.32;;;;;;;;;;5053142;28;20036;-37
2023/04/16 08:29:09;;;;;;;12.82;6.47;;;;;;;;;;5053204;28;20033;-37
2023/04/16 08:31:36;;;;;;;12.98;7.28;;;;;;;;;;5053100;28;20033;-37
2023/04/16 08:34:03;;;;;;;10.57;6.95;;;;;;;;;;5053045;28;20037;-37
2023/04/16 08:36:30;;;;;;;14.13;6.95;;;;;;;;;;5053111;28;20079;-37
2023/04/16 08:38:57;;;;;;;11.60;7.05;;;;;;;;;;5052822;28;20453;-37
2023/04/16 08:41:25;;;;;;;10.82;6.82;;;;;;;;;;5052934;28;20380;-37
2023/04/16 08:43:52;;;;;;;18.67;7.60;;;;;;;;;;5053020;28;20076;-37
2023/04/16 08:46:21;;;;;;;11.00;6.57;;;;;;;;;;5052790;28;20821;-37
2023/04/16 08:48:49;;;;;;;12.63;6.60;;;;;;;;;;5052767;28;20120;-37
2023/04/16 08:51:17;;;;;;;11.85;6.72;;;;;;;;;;5052705;28;20064;-37
2023/04/16 08:53:54;;;;;;;13.20;6.47;;;;;;;;;;5052796;28;20031;-37
2023/04/16 08:56:23;;;;;;;10.23;6.10;;;;;;;;;;5051989;28;20025;-36
2023/04/16 08:58:50;;;;;;;13.02;6.15;;;;;;;;;;5052504;28;20044;-37
2023/04/16 09:01:18;;;;;;;14.05;6.53;;;;;;;;;;5052408;28;20033;-36
2023/04/16 09:03:47;;;;;;;11.32;6.10;;;;;;;;;;5052327;28;20051;-36
2023/04/16 09:06:15;;;;;;;11.20;6.35;;;;;;;;;;5052385;28;20036;-36
2023/04/16 09:08:45;;;;;;;10.18;5.63;;;;;;;;;;5051956;28;20062;-37
2023/04/16 09:11:13;;;;;;;13.20;6.28;;;;;;;;;;5052159;28;20033;-36
2023/04/16 09:13:40;;;;;;;10.88;6.18;;;;;;;;;;5052312;28;20136;-37
2023/04/16 09:16:08;;;;;;;9.73;5.78;;;;;;;;;;5052257;28;20079;-37
2023/04/16 09:18:35;;;;;;;9.18;5.90;;;;;;;;;;5051864;28;20044;-36
2023/04/16 09:21:03;;;;;;;9.35;5.18;;;;;;;;;;5052170;28;20025;-36
2023/04/16 09:23:30;;;;;;;12.52;5.38;;;;;;;;;;5051758;28;20159;-37
2023/04/16 09:25:59;;;;;;;9.15;5.55;;;;;;;;;;5051929;28;20114;-36
2023/04/16 09:28:40;;;;;;;10.77;6.15;;;;;;;;;;5051690;28;20040;-36
2023/04/16 09:31:11;;;;;;;8.23;5.80;;;;;;;;;;5051572;28;20074;-36
2023/04/16 09:33:38;;;;;;;10.65;5.53;;;;;;;;;;5051985;28;20032;-36
2023/04/16 09:36:06;;;;;;;9.80;5.75;;;;;;;;;;5051794;28;20068;-36
2023/04/16 09:38:52;;;;;;;10.60;5.85;;;;;;;;;;5051648;28;20033;-37
2023/04/16 09:41:20;;;;;;;8.60;5.45;;;;;;;;;;5051862;28;20025;-36
2023/04/16 09:44:05;;;;;;;10.43;5.80;;;;;;;;;;5051670;28;20082;-36
2023/04/16 09:46:32;;;;;;;7.47;4.70;;;;;;;;;;5051272;28;20471;-37
2023/04/16 09:49:05;;;;;;;7.65;5.07;;;;;;;;;;5051452;28;20032;-36
2023/04/16 09:51:37;;;;;;;9.43;5.40;;;;;;;;;;5051252;28;20045;-36
2023/04/16 09:54:06;;;;;;;7.18;4.82;;;;;;;;;;5051589;28;20033;-36
2023/04/16 09:56:33;;;;;;;9.60;5.22;;;;;;;;;;5051334;28;20035;-36
2023/04/16 09:59:00;;;;;;;10.00;5.38;;;;;;;;;;5051445;28;20037;-36
2023/04/16 10:01:28;;;;;;;7.95;4.80;;;;;;;;;;5051522;28;20029;-36
2023/04/16 10:03:55;;;;;;;8.32;4.75;;;;;;;;;;5051148;28;20033;-37
2023/04/16 10:06:24;;;;;;;7.85;4.90;;;;;;;;;;5051476;28;20072;-37
2023/04/16 10:08:57;;;;;;;7.95;4.35;;;;;;;;;;5051032;28;20049;-37
2023/04/16 10:11:25;;;;;;;8.60;4.97;;;;;;;;;;5051138;28;20027;-37
2023/04/16 10:13:52;;;;;;;11.00;5.03;;;;;;;;;;5051381;28;20036;-37
2023/04/16 10:16:19;;;;;;;9.38;5.35;;;;;;;;;;5051353;28;20020;-37
2023/04/16 10:18:47;;;;;;;8.45;4.70;;;;;;;;;;5051030;28;20041;-37
2023/04/16 10:21:15;;;;;;;9.05;4.35;;;;;;;;;;5051037;28;20060;-37
2023/04/16 10:23:42;;;;;;;8.73;4.57;;;;;;;;;;5051225;28;20433;-37
2023/04/16 10:26:09;;;;;;;11.32;4.60;;;;;;;;;;5062261;28;20123;-37
2023/04/16 10:28:37;;;;;;;7.50;4.70;;;;;;;;;;5070457;28;20099;-36
2023/04/16 10:31:05;;;;;;;8.75;4.53;;;;;;;;;;5070902;28;20032;-36
2023/04/16 10:33:33;;;;;;;9.93;4.18;;;;;;;;;;5051339;28;20044;-36
2023/04/16 10:36:41;;;;;;;9.50;4.60;;;;;;;;;;5051155;28;20545;-36
2023/04/16 10:39:13;;;;;;;7.75;4.10;;;;;;;;;;4989637;28;20041;-36
2023/04/16 10:41:40;;;;;;;9.20;5.05;;;;;;;;;;4989613;28;20039;-36
2023/04/16 10:44:11;;;;;;;9.10;4.40;;;;;;;;;;5025542;28;20052;-36
2023/04/16 10:46:45;;;;;;;6.85;4.20;;;;;;;;;;5055025;28;20037;-36
2023/04/16 10:49:25;;;;;;;6.28;3.72;;;;;;;;;;5054858;28;20044;-36
2023/04/16 10:51:58;;;;;;;9.27;4.43;;;;;;;;;;5054699;28;20056;-36
2023/04/16 10:54:25;;;;;;;8.35;3.88;;;;;;;;;;5054879;28;20025;-36
2023/04/16 10:56:53;;;;;;;6.15;3.97;;;;;;;;;;5054844;28;20037;-36
2023/04/16 10:59:21;;;;;;;9.65;3.75;;;;;;;;;;5054677;28;20090;-36
2023/04/16 11:01:50;;;;;;;6.80;3.80;;;;;;;;;;5054660;28;20541;-36
2023/04/16 11:04:20;;;;;;;7.32;3.80;;;;;;;;;;5054615;28;20132;-36
2023/04/16 11:07:02;;;;;;;8.73;4.10;;;;;;;;;;5054698;28;20060;-36
2023/04/16 11:09:52;;;;;;;8.57;3.90;;;;;;;;;;5054487;28;20033;-36
2023/04/16 11:12:20;;;;;;;8.45;3.95;;;;;;;;;;5054520;28;20029;-36
2023/04/16 11:14:51;;;;;;;6.72;3.65;;;;;;;;;;5054440;28;20044;-36
2023/04/16 11:17:18;;;;;;;8.27;3.85;;;;;;;;;;5054534;28;20033;-36
2023/04/16 11:19:46;;;;;;;5.57;3.55;;;;;;;;;;5054137;28;20107;-36
2023/04/16 11:22:17;;;;;;;10.00;4.10;;;;;;;;;;5054473;28;20131;-36
2023/04/16 11:24:45;;;;;;;7.75;4.13;;;;;;;;;;5054299;28;20118;-36
2023/04/16 11:27:12;;;;;;;9.80;3.80;;;;;;;;;;5054364;28;20136;-36
2023/04/16 11:29:40;;;;;;;11.32;3.83;;;;;;;;;;5053908;28;20037;-36
2023/04/16 11:32:07;;;;;;;5.28;3.33;;;;;;;;;;5054136;28;20032;-36
2023/04/16 11:34:34;;;;;;;8.43;4.10;;;;;;;;;;5054244;28;20565;-36
2023/04/16 11:37:01;;;;;;;8.40;3.90;;;;;;;;;;5054262;28;20184;-36
2023/04/16 11:39:28;;;;;;;12.20;3.75;;;;;;;;;;5054027;28;20029;-36
2023/04/16 11:41:55;;;;;;;9.32;3.85;;;;;;;;;;5059261;28;20082;-36
2023/04/16 11:44:27;;;;;;;10.43;3.72;;;;;;;;;;5066092;28;20020;-36
2023/04/16 11:46:54;;;;;;;9.90;3.72;;;;;;;;;;5073920;28;20121;-35
2023/04/16 11:49:27;;;;;;;13.52;4.20;;;;;;;;;;5062217;28;20029;-36
2023/04/16 11:51:55;;;;;;;8.75;4.25;;;;;;;;;;5062424;28;20041;-36
2023/04/16 11:54:22;;;;;;;12.05;3.70;;;;;;;;;;5073550;28;20540;-36
2023/04/16 11:56:50;;;;;;;10.63;3.80;;;;;;;;;;5070626;28;20115;-35
2023/04/16 11:59:18;;;;;;;10.18;3.88;;;;;;;;;;5063100;28;20382;-36
2023/04/16 12:01:55;;;;;;;11.63;3.80;;;;;;;;;;5046675;28;20082;-36
2023/04/16 12:04:26;;;;;;;7.10;3.55;;;;;;;;;;5060863;28;20021;-35
2023/04/16 12:07:11;;;;;;;13.40;3.63;;;;;;;;;;5053488;28;20099;-36
2023/04/16 12:09:39;;;;;;;10.25;4.03;;;;;;;;;;5056325;28;20140;-36
2023/04/16 12:12:06;;;;;;;10.43;3.78;;;;;;;;;;5073314;28;20033;-36
2023/04/16 12:14:33;;;;;;;9.75;3.92;;;;;;;;;;5065622;28;20127;-37
2023/04/16 12:17:19;;;;;;;13.32;4.10;;;;;;;;;;5066863;28;20043;-36
2023/04/16 12:19:50;;;;;;;11.35;3.75;;;;;;;;;;5071343;28;20029;-36
2023/04/16 12:22:18;;;;;;;12.38;3.72;;;;;;;;;;5073013;28;20028;-35
2023/04/16 12:24:45;;;;;;;9.13;3.47;;;;;;;;;;5072758;28;20052;-35
2023/04/16 12:27:12;;;;;;;9.25;3.95;;;;;;;;;;5069406;28;20029;-35
2023/04/16 12:29:39;;;;;;;10.68;3.95;;;;;;;;;;5063480;28;20039;-35
2023/04/16 12:32:22;;;;;;;12.63;3.92;;;;;;;;;;5062037;28;20045;-36
2023/04/16 12:34:51;;;;;;;9.05;3.67;;;;;;;;;;5062357;28;20037;-35
2023/04/16 12:37:18;;;;;;;7.20;3.45;;;;;;;;;;5061186;28;20025;-34
2023/04/16 12:39:45;;;;;;;9.95;3.70;;;;;;;;;;5062842;28;20385;-35
2023/04/16 12:42:13;;;;;;;9.30;3.75;;;;;;;;;;5063293;28;20028;-35
2023/04/16 12:44:40;;;;;;;10.55;3.58;;;;;;;;;;5063109;28;20048;-35
2023/04/16 12:47:07;;;;;;;7.40;3.42;;;;;;;;;;5061767;28;20108;-36
2023/04/16 12:49:35;;;;;;;9.43;3.50;;;;;;;;;;5061403;28;20017;-35
2023/04/16 12:52:03;;;;;;;9.57;3.50;;;;;;;;;;5061095;28;20094;-36
2023/04/16 12:54:30;;;;;;;11.38;3.63;;;;;;;;;;5062908;28;20024;-36
2023/04/16 12:56:57;;;;;;;11.25;3.70;;;;;;;;;;5061747;28;20040;-35
2023/04/16 12:59:24;;;;;;;10.80;3.80;;;;;;;;;;5060883;28;20417;-35
2023/04/16 13:01:51;;;;;;;9.85;3.80;;;;;;;;;;5063647;28;20029;-35
2023/04/16 13:04:18;;;;;;;10.80;3.72;;;;;;;;;;5064889;28;20044;-35
2023/04/16 13:06:45;;;;;;;8.98;3.40;;;;;;;;;;5061314;28;20075;-36
2023/04/16 13:09:12;;;;;;;10.02;3.60;;;;;;;;;;5060319;28;20470;-35
2023/04/16 13:11:39;;;;;;;8.10;3.50;;;;;;;;;;5062255;28;20020;-36
2023/04/16 13:14:06;;;;;;;8.93;3.72;;;;;;;;;;5062101;28;20075;-36
2023/04/16 13:16:33;;;;;;;13.20;3.65;;;;;;;;;;5060571;28;20025;-35
2023/04/16 13:19:00;;;;;;;12.25;3.40;;;;;;;;;;5069204;28;20056;-36
2023/04/16 13:21:27;;;;;;;8.25;3.35;;;;;;;;;;5071367;28;20103;-35
2023/04/16 13:23:54;;;;;;;6.22;3.13;;;;;;;;;;5072019;28;20124;-35
2023/04/16 13:26:21;;;;;;;7.65;3.17;;;;;;;;;;5062986;28;20124;-36
2023/04/16 13:28:48;;;;;;;10.18;3.47;;;;;;;;;;5060558;28;20471;-35
2023/04/16 13:31:18;;;;;;;8.73;3.47;;;;;;;;;;5058388;28;20206;-36
2023/04/16 13:33:45;;;;;;;8.30;3.33;;;;;;;;;;5057350;28;20063;-36
2023/04/16 13:36:12;;;;;;;7.45;3.28;;;;;;;;;;5062340;28;20380;-36
2023/04/16 13:38:41;;;;;;;11.15;3.20;;;;;;;;;;5058050;28;20032;-36
2023/04/16 13:41:07;;;;;;;13.90;3.30;;;;;;;;;;5062821;28;20032;-36
2023/04/16 13:43:34;;;;;;;14.73;3.85;;;;;;;;;;5060861;28;20025;-37
2023/04/16 13:46:01;;;;;;;11.68;3.53;;;;;;;;;;5064710;28;20179;-36
2023/04/16 13:48:29;;;;;;;11.20;3.28;;;;;;;;;;5061061;28;20032;-36
2023/04/16 13:50:56;;;;;;;12.02;3.35;;;;;;;;;;5063251;28;20044;-36
2023/04/16 13:53:23;;;;;;;19.05;3.95;;;;;;;;;;5057193;28;20593;-36
2023/04/16 13:55:50;;;;;;;19.30;3.63;;;;;;;;;;5071419;28;20111;-36
2023/04/16 13:58:17;;;;;;;17.10;3.95;;;;;;;;;;5071368;28;20516;-36
2023/04/16 14:00:44;;;;;;;15.35;3.53;;;;;;;;;;5072001;28;20509;-37
2023/04/16 14:03:11;;;;;;;15.80;3.70;;;;;;;;;;5071624;28;20035;-36
2023/04/16 14:05:38;;;;;;;16.27;4.13;;;;;;;;;;5071556;28;20043;-36
2023/04/16 14:08:05;;;;;;;16.25;4.03;;;;;;;;;;5071439;28;20037;-36
2023/04/16 14:10:32;;;;;;;12.68;3.38;;;;;;;;;;5071686;28;20471;-36
2023/04/16 14:12:59;;;;;;;16.70;3.55;;;;;;;;;;5071598;28;20031;-36
2023/04/16 14:15:28;;;;;;;11.43;3.45;;;;;;;;;;5071439;28;20119;-36
2023/04/16 14:17:55;;;;;;;14.55;3.42;;;;;;;;;;5076005;28;20086;-36
2023/04/16 14:20:22;;;;;;;16.63;3.70;;;;;;;;;;5078033;28;20040;-36
2023/04/16 14:22:49;;;;;;;13.95;3.53;;;;;;;;;;5078175;28;20043;-36
2023/04/16 14:25:16;;;;;;;14.38;3.90;;;;;;;;;;5077907;28;20093;-36
2023/04/16 14:27:43;;;;;;;14.43;3.60;;;;;;;;;;5078163;28;20063;-36
2023/04/16 14:30:10;;;;;;;12.45;3.30;;;;;;;;;;5078061;28;20081;-36